Time;durP1;ratioP1;P1;durP2;ratioP2;P2;SDS_P1;SDS_P2;PMS_P1;PMS_P2;Temp;Humidity;BMP_temperature;BMP_pressure;BME280_temperature;BME280_humidity;BME280_pressure;Samples;Min_cycle;Max_cycle;Signal;HPM_P1;HPM_P2
2022/06/10 00:01:07;;;;;;;0.40;0.20;;;;;;;13.87;100.00;100799.75;4937018;29;20472;-51
2022/06/10 00:03:35;;;;;;;0.40;0.20;;;;;;;13.97;100.00;100792.28;4936690;29;20448;-51
2022/06/10 00:06:05;;;;;;;0.50;0.37;;;;;;;14.06;100.00;100794.66;4937051;29;20460;-51
2022/06/10 00:08:36;;;;;;;0.40;0.20;;;;;;;14.04;100.00;100800.97;4936966;29;20848;-51
2022/06/10 00:11:04;;;;;;;0.40;0.20;;;;;;;13.86;100.00;100806.03;4936922;29;20476;-51
2022/06/10 00:13:34;;;;;;;0.40;0.20;;;;;;;13.87;100.00;100802.44;4936689;29;20462;-51
2022/06/10 00:16:01;;;;;;;0.40;0.40;;;;;;;13.68;100.00;100806.63;4949296;29;20455;-51
2022/06/10 00:18:30;;;;;;;0.40;0.20;;;;;;;13.77;100.00;100798.31;4936924;29;20448;-51
2022/06/10 00:20:58;;;;;;;0.40;0.20;;;;;;;13.72;100.00;100807.44;4936603;29;20476;-51
2022/06/10 00:23:25;;;;;;;0.40;0.30;;;;;;;13.78;100.00;100809.88;4924564;29;20456;-51
2022/06/10 00:25:52;;;;;;;0.80;0.80;;;;;;;14.08;100.00;100808.84;4936975;29;20515;-53
2022/06/10 00:28:19;;;;;;;0.40;0.20;;;;;;;13.82;100.00;100808.84;4924061;29;20993;-51
2022/06/10 00:30:46;;;;;;;0.40;0.20;;;;;;;13.75;100.00;100810.88;4936509;29;20539;-51
2022/06/10 00:33:13;;;;;;;0.40;0.20;;;;;;;13.73;100.00;100814.50;4936282;29;20456;-51
2022/06/10 00:35:41;;;;;;;0.40;0.20;;;;;;;13.59;100.00;100810.50;4936595;29;20527;-52
2022/06/10 00:38:08;;;;;;;0.40;0.20;;;;;;;13.62;100.00;100818.41;4936549;29;20453;-51
2022/06/10 00:40:42;;;;;;;0.40;0.20;;;;;;;13.69;100.00;100819.06;4936348;29;20483;-51
2022/06/10 00:43:14;;;;;;;0.40;0.20;;;;;;;13.62;100.00;100815.72;4936470;29;20480;-51
2022/06/10 00:45:58;;;;;;;0.40;0.20;;;;;;;13.57;100.00;100820.38;4936026;29;20460;-51
2022/06/10 00:48:36;;;;;;;0.40;0.20;;;;;;;13.50;100.00;100815.25;4936166;29;20482;-51
2022/06/10 00:51:32;;;;;;;0.40;0.20;;;;;;;13.36;100.00;100815.69;4923397;29;20483;-51
2022/06/10 00:54:11;;;;;;;0.40;0.30;;;;;;;13.28;100.00;100815.03;4927066;29;21008;-51
2022/06/10 00:56:41;;;;;;;0.40;0.20;;;;;;;13.27;100.00;100819.50;4936486;29;20444;-51
2022/06/10 00:59:20;;;;;;;1.20;1.20;;;;;;;13.22;100.00;100816.13;4936121;29;20445;-51
2022/06/10 01:01:49;;;;;;;0.40;0.20;;;;;;;13.30;100.00;100824.78;4935700;29;20499;-51
2022/06/10 01:04:16;;;;;;;0.40;0.20;;;;;;;13.44;100.00;100823.47;4935318;29;20452;-51
2022/06/10 01:06:42;;;;;;;0.50;0.47;;;;;;;13.30;100.00;100821.25;4935403;29;20501;-50
2022/06/10 01:09:09;;;;;;;0.40;0.20;;;;;;;13.13;100.00;100820.81;4935994;29;20595;-51
2022/06/10 01:11:47;;;;;;;0.40;0.20;;;;;;;13.15;100.00;100822.53;4935578;29;20476;-51
2022/06/10 01:14:31;;;;;;;0.40;0.20;;;;;;;12.94;100.00;100823.19;4935824;29;20934;-50
2022/06/10 01:17:18;;;;;;;0.40;0.20;;;;;;;12.84;100.00;100824.38;4923425;29;20479;-51
2022/06/10 01:20:01;;;;;;;0.40;0.20;;;;;;;12.90;100.00;100822.41;4935446;29;20837;-50
2022/06/10 01:23:03;;;;;;;0.40;0.20;;;;;;;12.88;100.00;100818.00;4935828;29;20492;-51
2022/06/10 01:26:03;;;;;;;0.37;0.20;;;;;;;12.65;100.00;100816.91;4926935;29;20506;-51
2022/06/10 01:29:03;;;;;;;0.40;0.20;;;;;;;12.73;100.00;100814.00;4925096;29;20499;-52
2022/06/10 01:31:39;;;;;;;0.40;0.30;;;;;;;12.82;100.00;100811.09;4923123;29;20480;-51
2022/06/10 01:34:31;;;;;;;0.40;0.20;;;;;;;12.93;100.00;100811.63;4935455;29;20452;-50
2022/06/10 01:37:10;;;;;;;0.40;0.27;;;;;;;12.96;100.00;100810.66;4935726;29;20837;-51
2022/06/10 01:40:13;;;;;;;0.40;0.20;;;;;;;12.97;100.00;100815.09;4922829;29;20448;-51
2022/06/10 01:42:48;;;;;;;0.40;0.20;;;;;;;12.74;100.00;100813.09;4935267;29;20448;-52
2022/06/10 01:45:31;;;;;;;0.30;0.20;;;;;;;12.58;100.00;100812.66;4935651;29;20448;-51
2022/06/10 01:48:13;;;;;;;0.40;0.20;;;;;;;12.79;100.00;100808.50;4924827;29;20452;-51
2022/06/10 01:50:56;;;;;;;0.40;0.20;;;;;;;12.75;100.00;100812.19;4935121;29;20495;-51
2022/06/10 01:53:53;;;;;;;0.30;0.20;;;;;;;12.59;100.00;100817.06;4935102;29;20482;-51
2022/06/10 01:56:30;;;;;;;0.30;0.20;;;;;;;12.59;100.00;100814.41;4933310;29;20460;-50
2022/06/10 01:59:03;;;;;;;1.43;1.43;;;;;;;12.80;100.00;100814.72;4934952;29;21004;-51
2022/06/10 02:01:37;;;;;;;0.30;0.20;;;;;;;12.77;100.00;100825.47;4935271;29;20548;-51
2022/06/10 02:04:27;;;;;;;0.40;0.40;;;;;;;12.88;100.00;100820.69;4935361;29;20451;-51
2022/06/10 02:06:57;;;;;;;0.40;0.20;;;;;;;12.85;100.00;100820.78;4934726;29;20456;-51
2022/06/10 02:09:30;;;;;;;0.30;0.20;;;;;;;12.80;100.00;100825.38;4935109;29;20555;-51
2022/06/10 02:12:08;;;;;;;0.30;0.20;;;;;;;12.85;100.00;100824.31;4934652;29;20491;-52
2022/06/10 02:15:04;;;;;;;7.83;0.60;;;;;;;12.72;100.00;100833.59;4937356;29;20454;-51
2022/06/10 02:17:43;;;;;;;0.40;0.20;;;;;;;12.53;100.00;100827.06;4941905;29;20499;-50
2022/06/10 02:20:18;;;;;;;0.37;0.20;;;;;;;12.43;100.00;100829.97;4922799;29;20491;-51
2022/06/10 02:22:46;;;;;;;0.30;0.20;;;;;;;12.37;100.00;100834.59;4934673;29;20969;-51
2022/06/10 02:25:21;;;;;;;0.40;0.20;;;;;;;12.45;100.00;100828.13;4934910;29;20515;-51
2022/06/10 02:27:53;;;;;;;1.07;1.07;;;;;;;12.40;100.00;100834.50;4934342;29;20938;-51
2022/06/10 02:30:20;;;;;;;0.40;0.20;;;;;;;12.47;100.00;100841.41;4935073;29;20546;-51
2022/06/10 02:32:47;;;;;;;0.40;0.30;;;;;;;12.46;100.00;100837.00;4934907;29;20535;-51
2022/06/10 02:35:15;;;;;;;0.40;0.20;;;;;;;12.42;100.00;100851.34;4917882;29;20476;-51
2022/06/10 02:37:59;;;;;;;0.40;0.20;;;;;;;12.42;100.00;100846.00;4934925;29;20503;-51
2022/06/10 02:40:38;;;;;;;0.40;0.30;;;;;;;12.18;100.00;100852.84;4934537;29;20500;-51
2022/06/10 02:43:17;;;;;;;0.40;0.20;;;;;;;11.89;100.00;100848.28;4935115;29;20452;-51
2022/06/10 02:45:56;;;;;;;0.40;0.20;;;;;;;12.11;100.00;100859.28;4934819;29;20495;-51
2022/06/10 02:48:53;;;;;;;0.40;0.30;;;;;;;12.16;100.00;100855.56;4934637;29;20828;-51
2022/06/10 02:51:21;;;;;;;0.70;0.70;;;;;;;12.16;100.00;100858.22;4925265;29;20534;-51
2022/06/10 02:53:47;;;;;;;0.40;0.30;;;;;;;12.03;100.00;100850.59;4934231;29;20452;-51
2022/06/10 02:56:27;;;;;;;0.30;0.20;;;;;;;12.04;100.00;100852.34;4934875;29;20457;-51
2022/06/10 03:02:49;;;;;;;0.40;0.20;;;;;;;11.85;100.00;100863.47;4934357;29;20965;-51
2022/06/10 03:05:40;;;;;;;0.40;0.20;;;;;;;12.13;100.00;100865.44;4920030;29;20937;-51
2022/06/10 03:08:24;;;;;;;0.40;0.30;;;;;;;12.04;100.00;100860.31;4934402;29;20456;-51
2022/06/10 03:11:25;;;;;;;0.30;0.20;;;;;;;12.04;100.00;100871.00;4934389;29;20507;-51
2022/06/10 03:14:06;;;;;;;0.30;0.20;;;;;;;12.04;100.00;100871.00;4923263;29;20886;-51
2022/06/10 03:16:53;;;;;;;0.30;0.20;;;;;;;12.01;100.00;100876.41;4934260;29;20515;-51
2022/06/10 03:19:45;;;;;;;0.30;0.30;;;;;;;11.81;100.00;100879.56;4934716;29;20861;-51
2022/06/10 03:22:29;;;;;;;0.30;0.20;;;;;;;11.74;100.00;100880.59;4934257;29;20946;-51
2022/06/10 03:25:33;;;;;;;0.30;0.20;;;;;;;11.81;100.00;100887.56;4934431;29;20452;-51
2022/06/10 03:28:10;;;;;;;0.40;0.30;;;;;;;11.72;100.00;100880.63;4936211;29;20456;-52
2022/06/10 03:30:49;;;;;;;0.30;0.20;;;;;;;11.77;100.00;100883.16;4937439;29;20503;-51
2022/06/10 03:33:23;;;;;;;0.30;0.30;;;;;;;11.78;100.00;100884.91;4926165;29;21013;-52
2022/06/10 03:36:00;;;;;;;0.37;0.27;;;;;;;11.71;100.00;100894.84;4937495;29;20483;-53
2022/06/10 03:38:30;;;;;;;0.30;0.20;;;;;;;11.59;100.00;100887.16;4937876;29;20452;-51
2022/06/10 03:40:59;;;;;;;0.30;0.20;;;;;;;11.67;100.00;100892.31;4937248;29;21048;-51
2022/06/10 03:43:34;;;;;;;2.10;1.17;;;;;;;11.67;100.00;100892.31;4937537;29;20515;-51
2022/06/10 03:46:05;;;;;;;0.30;0.20;;;;;;;11.73;100.00;100894.81;4937357;29;20444;-51
2022/06/10 03:48:35;;;;;;;0.40;0.30;;;;;;;11.72;100.00;100890.41;4937246;29;20455;-50
2022/06/10 03:51:02;;;;;;;0.30;0.20;;;;;;;11.74;100.00;100892.09;4937162;29;20539;-51
2022/06/10 03:53:29;;;;;;;0.30;0.20;;;;;;;11.82;100.00;100902.63;4937112;29;20452;-51
2022/06/10 03:55:56;;;;;;;0.30;0.20;;;;;;;11.89;100.00;100900.69;4937262;29;20484;-51
2022/06/10 03:58:22;;;;;;;0.30;0.20;;;;;;;11.83;100.00;100904.38;4937177;29;20456;-51
2022/06/10 04:00:49;;;;;;;0.30;0.20;;;;;;;11.78;100.00;100896.44;4937022;29;20941;-51
2022/06/10 04:03:16;;;;;;;0.30;0.20;;;;;;;11.96;100.00;100902.28;4937028;29;20456;-51
2022/06/10 04:05:43;;;;;;;0.40;0.40;;;;;;;12.14;100.00;100904.50;4937421;29;20547;-53
2022/06/10 04:08:30;;;;;;;0.30;0.20;;;;;;;12.39;100.00;100910.94;4937204;29;20542;-52
2022/06/10 04:10:56;;;;;;;0.30;0.20;;;;;;;12.18;100.00;100921.28;4936742;29;20539;-51
2022/06/10 04:13:23;;;;;;;0.30;0.20;;;;;;;12.10;100.00;100917.03;4937217;29;20877;-51
2022/06/10 04:15:50;;;;;;;0.30;0.20;;;;;;;12.18;100.00;100918.59;4947685;29;20502;-50
2022/06/10 04:18:17;;;;;;;0.30;0.20;;;;;;;12.35;100.00;100917.28;4938428;29;20459;-51
2022/06/10 04:20:43;;;;;;;0.30;0.20;;;;;;;12.33;100.00;100924.41;4936377;29;20527;-52
2022/06/10 04:23:12;;;;;;;0.30;0.20;;;;;;;12.45;100.00;100926.78;4936723;29;20456;-52
2022/06/10 04:25:39;;;;;;;0.30;0.20;;;;;;;12.77;100.00;100918.84;4937286;29;20452;-51
2022/06/10 04:28:06;;;;;;;0.30;0.20;;;;;;;13.47;100.00;100919.53;4936905;29;20456;-52
2022/06/10 04:30:40;;;;;;;0.30;0.20;;;;;;;13.98;100.00;100922.38;4936779;29;20905;-52
2022/06/10 04:33:07;;;;;;;0.30;0.20;;;;;;;14.57;99.59;100926.66;4931424;29;20885;-51
2022/06/10 04:35:36;;;;;;;0.30;0.20;;;;;;;15.23;97.11;100928.69;4930128;29;20456;-51
2022/06/10 04:38:04;;;;;;;0.40;0.20;;;;;;;15.73;93.55;100933.06;4924121;29;20452;-52
2022/06/10 04:40:33;;;;;;;0.40;0.20;;;;;;;16.06;91.68;100933.53;4935396;29;20472;-52
2022/06/10 04:43:00;;;;;;;0.40;0.20;;;;;;;16.14;90.72;100937.63;4936356;29;20492;-51
2022/06/10 04:45:31;;;;;;;0.40;0.20;;;;;;;16.70;90.18;100939.75;4935831;29;20834;-52
2022/06/10 04:47:58;;;;;;;0.40;0.20;;;;;;;17.12;88.27;100942.34;4936375;29;20505;-52
2022/06/10 04:50:27;;;;;;;0.40;0.20;;;;;;;17.34;87.73;100944.06;4936445;29;20522;-52
2022/06/10 04:52:55;;;;;;;0.40;0.40;;;;;;;17.53;87.22;100949.47;4936394;29;20511;-52
2022/06/10 04:55:23;;;;;;;0.40;0.20;;;;;;;17.66;86.55;100943.44;4935804;29;20816;-52
2022/06/10 04:57:50;;;;;;;0.50;0.47;;;;;;;17.79;85.57;100948.25;4935920;29;20457;-51
2022/06/10 05:00:30;;;;;;;6.00;0.73;;;;;;;17.84;86.13;100951.63;4936147;29;20483;-52
2022/06/10 05:02:56;;;;;;;0.40;0.20;;;;;;;18.00;85.33;100953.50;4935599;29;20861;-51
2022/06/10 05:05:23;;;;;;;0.40;0.20;;;;;;;18.18;84.70;100959.78;4936083;29;20487;-52
2022/06/10 05:07:49;;;;;;;0.40;0.30;;;;;;;18.27;84.30;100950.41;4936095;29;20503;-52
2022/06/10 05:10:18;;;;;;;0.40;0.20;;;;;;;18.42;82.95;100963.09;4935822;29;20496;-52
2022/06/10 05:12:45;;;;;;;1.97;1.87;;;;;;;18.41;84.47;100952.41;4936024;29;20452;-52
2022/06/10 05:15:14;;;;;;;0.40;0.20;;;;;;;18.89;82.79;100949.00;4941140;29;20483;-52
2022/06/10 05:17:41;;;;;;;0.60;0.47;;;;;;;19.18;81.24;100947.47;4942336;29;20452;-52
2022/06/10 05:20:11;;;;;;;0.40;0.30;;;;;;;18.99;81.84;100950.28;4935493;29;20472;-51
2022/06/10 05:22:38;;;;;;;0.40;0.30;;;;;;;18.88;81.61;100945.44;4935696;29;20861;-52
2022/06/10 05:25:05;;;;;;;0.40;0.20;;;;;;;19.18;81.48;100951.03;4935487;29;20503;-52
2022/06/10 05:27:32;;;;;;;0.40;0.27;;;;;;;19.37;81.46;100940.16;4935660;29;20817;-52
2022/06/10 05:29:58;;;;;;;0.50;0.50;;;;;;;19.23;81.74;100940.91;4935716;29;20586;-52
2022/06/10 05:32:25;;;;;;;0.40;0.30;;;;;;;19.46;81.13;100952.22;4935699;29;20460;-52
2022/06/10 05:34:51;;;;;;;0.40;0.30;;;;;;;19.51;79.99;100959.13;4935340;29;20938;-52
2022/06/10 05:37:24;;;;;;;0.40;0.30;;;;;;;19.55;80.12;100954.47;4935346;29;20452;-53
2022/06/10 05:39:52;;;;;;;0.40;0.20;;;;;;;19.60;80.68;100951.50;4935098;29;20502;-52
2022/06/10 05:42:19;;;;;;;7.50;2.57;;;;;;;19.75;80.11;100953.38;4935472;29;20873;-52
2022/06/10 05:44:48;;;;;;;0.40;0.20;;;;;;;19.63;80.74;100963.03;4935558;29;20452;-53
2022/06/10 05:47:27;;;;;;;0.40;0.20;;;;;;;19.74;79.82;100952.50;4935399;29;20858;-53
2022/06/10 05:49:57;;;;;;;0.40;0.30;;;;;;;19.73;79.91;100955.25;4934834;29;20591;-53
2022/06/10 05:52:26;;;;;;;0.40;0.20;;;;;;;19.98;78.31;100962.84;4935191;29;20448;-52
2022/06/10 05:54:56;;;;;;;0.40;0.20;;;;;;;19.18;80.52;100950.16;4935099;29;20484;-53
2022/06/10 05:57:23;;;;;;;0.40;0.30;;;;;;;19.79;79.83;100950.41;4935170;29;20511;-52
2022/06/10 05:59:52;;;;;;;0.70;0.70;;;;;;;19.34;80.33;100951.09;4934811;29;20476;-53
2022/06/10 06:02:20;;;;;;;0.40;0.20;;;;;;;19.67;79.90;100951.09;4935353;29;20444;-52
2022/06/10 06:04:47;;;;;;;0.40;0.20;;;;;;;20.01;79.02;100952.78;4935289;29;20456;-53
2022/06/10 06:07:19;;;;;;;0.50;0.40;;;;;;;19.16;81.81;100958.34;4934939;29;20456;-52
2022/06/10 06:09:46;;;;;;;0.40;0.20;;;;;;;19.90;80.06;100957.91;4934726;29;20500;-52
2022/06/10 06:12:13;;;;;;;1.70;0.70;;;;;;;20.14;80.10;100969.13;4918455;29;20605;-52
2022/06/10 06:14:40;;;;;;;0.50;0.30;;;;;;;20.31;77.30;100955.53;4919704;29;20487;-52
2022/06/10 06:17:07;;;;;;;0.93;0.93;;;;;;;20.18;77.58;100970.69;4945982;29;20456;-52
2022/06/10 06:19:34;;;;;;;0.50;0.37;;;;;;;20.47;75.58;100973.56;4934724;29;20957;-52
2022/06/10 06:22:01;;;;;;;1.90;1.70;;;;;;;20.27;77.14;100970.16;4918391;29;20535;-53
2022/06/10 06:24:36;;;;;;;0.43;0.30;;;;;;;20.18;77.20;100980.63;4935051;29;20456;-52
2022/06/10 06:27:03;;;;;;;0.40;0.20;;;;;;;20.59;76.29;100978.25;4934837;29;20464;-52
2022/06/10 06:29:30;;;;;;;2.00;0.80;;;;;;;21.09;74.64;100986.00;4934406;29;20543;-54
2022/06/10 06:31:56;;;;;;;0.40;0.20;;;;;;;21.28;73.61;100977.69;4934744;29;20874;-52
2022/06/10 06:34:25;;;;;;;2.00;1.90;;;;;;;20.57;75.29;100975.66;4934700;29;20460;-52
2022/06/10 06:36:55;;;;;;;0.50;0.40;;;;;;;20.33;76.83;100983.31;4934638;29;20511;-52
2022/06/10 06:39:23;;;;;;;0.40;0.30;;;;;;;20.40;76.57;100981.09;4934643;29;20456;-53
2022/06/10 06:41:52;;;;;;;0.40;0.30;;;;;;;20.62;76.84;100983.47;4934502;29;20455;-53
2022/06/10 06:44:19;;;;;;;0.40;0.20;;;;;;;21.35;73.72;100980.84;4934534;29;20892;-52
2022/06/10 06:46:46;;;;;;;0.40;0.30;;;;;;;21.24;73.69;100974.28;4934924;29;20435;-53
2022/06/10 06:49:20;;;;;;;0.40;0.27;;;;;;;21.16;74.55;100979.25;4934664;29;20465;-52
2022/06/10 06:51:47;;;;;;;0.90;0.37;;;;;;;20.94;74.25;100976.13;4934395;29;20998;-53
2022/06/10 06:54:15;;;;;;;2.00;0.73;;;;;;;21.52;74.00;100977.97;4934748;29;20452;-52
2022/06/10 06:56:42;;;;;;;0.40;0.20;;;;;;;21.83;73.75;100977.75;4934391;29;20463;-52
2022/06/10 06:59:09;;;;;;;0.40;0.30;;;;;;;21.19;74.57;100989.00;4934899;29;20435;-52
2022/06/10 07:01:35;;;;;;;0.50;0.30;;;;;;;21.45;72.92;100977.47;4934662;29;20519;-52
2022/06/10 07:04:04;;;;;;;0.40;0.30;;;;;;;21.25;74.39;100983.28;4938415;29;20486;-52
2022/06/10 07:06:34;;;;;;;0.40;0.20;;;;;;;21.21;74.14;100974.44;4938528;29;20514;-52
2022/06/10 07:09:01;;;;;;;0.40;0.20;;;;;;;21.42;74.65;100982.22;4938196;29;20435;-53
2022/06/10 07:11:27;;;;;;;0.40;0.20;;;;;;;21.40;74.03;100985.03;4937821;29;20495;-52
2022/06/10 07:13:54;;;;;;;0.40;0.20;;;;;;;21.66;72.73;100982.53;4937960;29;20885;-52
2022/06/10 07:16:20;;;;;;;0.40;0.30;;;;;;;21.51;74.06;100976.22;4950747;29;20451;-52
2022/06/10 07:18:47;;;;;;;0.50;0.40;;;;;;;21.63;71.91;100978.16;4938187;29;20464;-52
2022/06/10 07:21:14;;;;;;;0.40;0.20;;;;;;;21.63;72.33;100983.56;4937703;29;20468;-53
2022/06/10 07:23:41;;;;;;;0.40;0.20;;;;;;;21.58;72.47;100983.00;4937774;29;20463;-53
2022/06/10 07:26:07;;;;;;;0.40;0.30;;;;;;;21.61;72.02;100981.94;4938079;29;20965;-52
2022/06/10 07:28:34;;;;;;;0.40;0.30;;;;;;;21.66;71.59;100983.38;4937934;29;20474;-52
2022/06/10 07:31:00;;;;;;;0.40;0.20;;;;;;;22.17;70.80;100981.00;4937887;29;20528;-52
2022/06/10 07:33:27;;;;;;;0.40;0.20;;;;;;;22.17;70.00;100976.44;4937765;29;20487;-52
2022/06/10 07:35:55;;;;;;;0.50;0.30;;;;;;;22.23;68.24;100977.91;4937674;29;21265;-52
2022/06/10 07:38:22;;;;;;;0.47;0.30;;;;;;;21.81;70.00;100985.13;4937828;29;20452;-52
2022/06/10 07:43:51;;;;;;;0.50;0.40;;;;;;;22.40;69.71;100965.94;4930093;29;20455;-52
2022/06/10 07:46:20;;;;;;;0.50;0.40;;;;;;;22.59;69.76;100970.97;4936902;29;20423;-53
2022/06/10 07:48:48;;;;;;;0.50;0.30;;;;;;;22.33;69.28;100968.16;4937533;29;20523;-52
2022/06/10 07:51:15;;;;;;;0.40;0.30;;;;;;;22.16;69.44;100963.88;4936941;29;21068;-52
2022/06/10 07:53:43;;;;;;;0.40;0.20;;;;;;;22.09;67.54;100961.69;4937488;29;20515;-53
2022/06/10 07:56:13;;;;;;;0.50;0.30;;;;;;;21.75;69.57;100961.13;4937290;29;20459;-53
2022/06/10 07:58:40;;;;;;;0.40;0.20;;;;;;;21.91;69.33;100961.00;4937230;29;20511;-53
2022/06/10 08:01:06;;;;;;;3.07;0.67;;;;;;;22.31;67.82;100963.84;4937401;29;20447;-52
2022/06/10 08:03:33;;;;;;;0.40;0.30;;;;;;;22.70;67.16;100966.56;4936742;29;20452;-52
2022/06/10 08:06:01;;;;;;;0.40;0.20;;;;;;;22.59;64.88;100960.13;4937035;29;20456;-52
2022/06/10 08:08:28;;;;;;;0.40;0.20;;;;;;;22.68;65.13;100954.09;4937279;29;20430;-53
2022/06/10 08:10:55;;;;;;;0.50;0.40;;;;;;;22.63;65.44;100958.97;4936895;29;20533;-53
2022/06/10 08:13:22;;;;;;;0.40;0.20;;;;;;;23.09;63.93;100956.69;4936800;29;20937;-53
2022/06/10 08:15:55;;;;;;;0.50;0.40;;;;;;;22.75;64.02;100959.00;4948086;29;20983;-53
2022/06/10 08:18:22;;;;;;;0.40;0.20;;;;;;;23.47;63.83;100950.41;4938406;29;20501;-52
2022/06/10 08:23:36;;;;;;;0.40;0.30;;;;;;;23.14;65.11;100957.22;4937131;29;20499;-53
2022/06/10 08:26:06;;;;;;;10.97;2.50;;;;;;;23.40;63.12;100949.09;4936997;29;20837;-53
2022/06/10 08:28:34;;;;;;;0.40;0.30;;;;;;;23.45;62.07;100950.50;4936417;29;20929;-53
2022/06/10 08:31:01;;;;;;;0.40;0.30;;;;;;;23.57;63.81;100948.72;4936579;29;20478;-53
2022/06/10 08:33:28;;;;;;;0.40;0.30;;;;;;;23.67;62.51;100947.13;4936653;29;20480;-53
2022/06/10 08:35:54;;;;;;;0.40;0.23;;;;;;;24.33;60.22;100948.56;4936164;29;20427;-53
2022/06/10 08:38:21;;;;;;;0.40;0.30;;;;;;;24.13;60.33;100943.75;4935389;29;20543;-52
2022/06/10 08:41:07;;;;;;;0.50;0.40;;;;;;;23.47;61.32;100944.97;4936069;29;20956;-53
2022/06/10 08:43:39;;;;;;;0.40;0.30;;;;;;;23.35;62.98;100957.56;4936442;29;20448;-52
2022/06/10 08:46:24;;;;;;;0.50;0.40;;;;;;;23.40;59.75;100957.22;4924081;29;20823;-52
2022/06/10 08:49:18;;;;;;;0.40;0.30;;;;;;;23.70;61.90;100951.47;4936347;29;20452;-53
2022/06/10 08:52:03;;;;;;;0.40;0.20;;;;;;;23.60;62.09;100957.56;4935815;29;21054;-53
2022/06/10 08:54:45;;;;;;;0.60;0.60;;;;;;;23.68;61.64;100950.69;4935994;29;20865;-53
2022/06/10 08:57:45;;;;;;;4.00;1.13;;;;;;;23.97;60.95;100960.31;4936142;29;20456;-53
2022/06/10 09:00:14;;;;;;;0.50;0.40;;;;;;;24.76;60.23;100948.00;4924552;29;20459;-54
2022/06/10 09:02:52;;;;;;;0.40;0.30;;;;;;;24.80;58.29;100952.22;4936222;29;20456;-53
2022/06/10 09:05:26;;;;;;;0.50;0.33;;;;;;;24.14;60.17;100953.63;4936130;29;20460;-52
2022/06/10 09:07:58;;;;;;;0.40;0.30;;;;;;;24.56;59.68;100955.00;4936110;29;20451;-52
2022/06/10 09:10:44;;;;;;;0.40;0.30;;;;;;;25.19;58.39;100950.13;4924550;29;20554;-53
2022/06/10 09:13:34;;;;;;;0.40;0.20;;;;;;;25.03;59.42;100953.19;4935553;29;20446;-52
2022/06/10 09:16:14;;;;;;;0.40;0.20;;;;;;;25.56;56.75;100954.38;4948245;29;20448;-53
2022/06/10 09:18:47;;;;;;;0.50;0.47;;;;;;;24.57;58.22;100939.56;4924507;29;20456;-53
2022/06/10 09:21:34;;;;;;;0.40;0.20;;;;;;;25.07;57.04;100944.66;4934326;29;21044;-53
2022/06/10 09:24:08;;;;;;;0.50;0.30;;;;;;;24.42;59.54;100953.31;4925050;29;20516;-52
2022/06/10 09:26:42;;;;;;;0.50;0.40;;;;;;;24.83;57.17;100952.00;4934850;29;20448;-53
2022/06/10 09:29:11;;;;;;;9.83;1.23;;;;;;;24.43;57.98;100952.34;4935742;29;20514;-52
2022/06/10 09:31:53;;;;;;;0.40;0.23;;;;;;;24.46;57.37;100946.66;4935468;29;20518;-52
2022/06/10 09:34:30;;;;;;;0.40;0.30;;;;;;;24.88;56.81;100949.78;4918631;29;20452;-53
2022/06/10 09:37:12;;;;;;;0.40;0.30;;;;;;;24.99;55.16;100947.09;4935383;29;20840;-52
2022/06/10 09:43:43;;;;;;;0.40;0.20;;;;;;;25.06;52.98;100939.34;4924639;29;20491;-53
2022/06/10 09:46:12;;;;;;;0.53;0.50;;;;;;;24.92;51.11;100939.53;4923639;29;20883;-52
2022/06/10 09:48:58;;;;;;;0.50;0.40;;;;;;;24.91;51.26;100932.34;4935292;29;20465;-52
2022/06/10 09:51:43;;;;;;;0.43;0.30;;;;;;;25.59;49.28;100936.91;4935102;29;20503;-53
2022/06/10 09:54:46;;;;;;;0.40;0.20;;;;;;;25.73;51.53;100930.38;4935263;29;20435;-53
2022/06/10 09:57:35;;;;;;;0.50;0.30;;;;;;;26.00;49.83;100930.81;4935289;29;20511;-53
2022/06/10 10:00:05;;;;;;;0.40;0.30;;;;;;;25.51;52.23;100929.38;4934780;29;20506;-53
2022/06/10 10:03:04;;;;;;;3.17;1.37;;;;;;;25.83;48.88;100928.63;4935695;29;20895;-52
2022/06/10 10:06:13;;;;;;;0.50;0.37;;;;;;;25.61;51.61;100924.91;4935289;29;20514;-53
2022/06/10 10:08:58;;;;;;;0.67;0.67;;;;;;;26.10;49.20;100923.63;4927785;29;20427;-53
2022/06/10 10:12:04;;;;;;;36.80;2.10;;;;;;;26.53;50.19;100918.16;4934749;29;20503;-53
2022/06/10 10:14:53;;;;;;;4.23;0.93;;;;;;;26.11;50.93;100925.34;4935117;29;20505;-53
2022/06/10 10:17:37;;;;;;;0.60;0.50;;;;;;;26.01;51.42;100918.94;4944833;29;20456;-53
2022/06/10 10:20:41;;;;;;;0.50;0.30;;;;;;;26.01;53.08;100918.94;4934990;29;20507;-53
2022/06/10 10:23:22;;;;;;;0.53;0.37;;;;;;;26.90;49.55;100919.59;4935614;29;20484;-52
2022/06/10 10:25:49;;;;;;;0.50;0.40;;;;;;;26.62;49.36;100916.53;4936018;29;20853;-53
2022/06/10 10:28:31;;;;;;;0.50;0.30;;;;;;;26.96;49.08;100908.13;4935558;29;20456;-52
2022/06/10 10:31:03;;;;;;;0.40;0.30;;;;;;;25.97;50.85;100920.19;4935265;29;20545;-53
2022/06/10 10:33:30;;;;;;;0.40;0.30;;;;;;;26.20;49.77;100910.09;4935309;29;20419;-52
2022/06/10 10:35:58;;;;;;;0.40;0.30;;;;;;;25.90;51.62;100908.91;4935037;29;20427;-53
2022/06/10 10:38:30;;;;;;;0.40;0.30;;;;;;;26.21;49.56;100909.97;4937904;29;20452;-53
2022/06/10 10:40:58;;;;;;;0.40;0.23;;;;;;;25.75;51.17;100906.59;4938596;29;20890;-53
2022/06/10 10:43:28;;;;;;;0.40;0.30;;;;;;;25.64;50.58;100908.31;4938858;29;20427;-53
2022/06/10 10:46:05;;;;;;;0.50;0.30;;;;;;;26.55;49.86;100909.84;4938324;29;20422;-53
2022/06/10 10:48:43;;;;;;;0.40;0.30;;;;;;;26.52;48.49;100910.13;4938681;29;20426;-53
2022/06/10 10:51:09;;;;;;;0.40;0.20;;;;;;;26.80;48.59;100900.41;4938733;29;20525;-54
2022/06/10 10:54:03;;;;;;;0.50;0.30;;;;;;;26.12;50.71;100898.97;4938090;29;20459;-53
2022/06/10 10:56:33;;;;;;;0.40;0.30;;;;;;;26.19;48.42;100902.91;4938304;29;20452;-54
2022/06/10 10:59:00;;;;;;;1.60;0.73;;;;;;;25.89;49.78;100906.31;4925943;29;20456;-53
2022/06/10 11:01:47;;;;;;;0.50;0.50;;;;;;;25.56;47.00;100899.03;4937816;29;20818;-53
2022/06/10 11:04:26;;;;;;;0.40;0.30;;;;;;;25.68;49.38;100898.94;4938289;29;20430;-54
2022/06/10 11:07:13;;;;;;;0.70;0.70;;;;;;;25.51;49.95;100904.00;4938071;29;20550;-54
2022/06/10 11:10:16;;;;;;;0.40;0.30;;;;;;;25.54;48.83;100895.59;4937676;29;20476;-54
2022/06/10 11:12:44;;;;;;;0.40;0.23;;;;;;;25.45;49.82;100890.88;4938029;29;20522;-54
2022/06/10 11:15:17;;;;;;;0.40;0.20;;;;;;;26.35;48.31;100892.44;4931154;29;20821;-54
2022/06/10 11:17:47;;;;;;;0.40;0.23;;;;;;;26.55;47.40;100890.75;4944136;29;20474;-54
2022/06/10 11:20:14;;;;;;;0.40;0.27;;;;;;;25.76;46.42;100891.97;4938154;29;20446;-54
2022/06/10 11:22:41;;;;;;;0.40;0.30;;;;;;;26.54;45.41;100883.56;4937770;29;20490;-54
2022/06/10 11:25:14;;;;;;;0.40;0.30;;;;;;;27.34;45.58;100892.00;4937774;29;20455;-54
2022/06/10 11:28:15;;;;;;;1.03;0.97;;;;;;;27.39;43.30;100877.91;4937842;29;20448;-54
2022/06/10 11:30:44;;;;;;;0.40;0.30;;;;;;;26.40;44.40;100876.56;4937315;29;21092;-54
2022/06/10 11:33:38;;;;;;;0.40;0.30;;;;;;;27.20;45.93;100870.53;4937638;29;20460;-53
2022/06/10 11:36:20;;;;;;;0.50;0.30;;;;;;;26.98;45.21;100873.38;4937762;29;20435;-53
2022/06/10 11:38:51;;;;;;;0.50;0.30;;;;;;;27.17;46.45;100878.13;4937881;29;20478;-54
2022/06/10 11:41:26;;;;;;;0.40;0.30;;;;;;;27.45;43.91;100874.66;4937308;29;20494;-53
2022/06/10 11:44:00;;;;;;;0.40;0.30;;;;;;;26.53;42.58;100874.53;4937386;29;20477;-54
2022/06/10 11:46:47;;;;;;;0.50;0.40;;;;;;;25.84;44.18;100871.28;4937635;29;20452;-54
2022/06/10 11:49:23;;;;;;;0.40;0.20;;;;;;;26.59;47.01;100864.97;4937089;29;20502;-53
2022/06/10 11:51:58;;;;;;;0.40;0.20;;;;;;;27.01;45.30;100859.50;4937049;29;20491;-54
2022/06/10 11:54:37;;;;;;;0.40;0.20;;;;;;;26.66;44.27;100854.38;4937180;29;20430;-53
2022/06/10 12:00:19;;;;;;;0.40;0.27;;;;;;;26.46;45.45;100867.88;4937327;29;20450;-53
2022/06/10 12:03:14;;;;;;;0.40;0.20;;;;;;;26.28;45.77;100859.38;4927799;29;20456;-53
2022/06/10 12:05:59;;;;;;;0.40;0.20;;;;;;;26.37;46.81;100860.47;4924871;29;20539;-53
2022/06/10 12:08:43;;;;;;;0.40;0.30;;;;;;;26.08;45.90;100853.88;4937326;29;20526;-54
2022/06/10 12:11:43;;;;;;;0.40;0.30;;;;;;;26.61;45.25;100845.75;4936914;29;20466;-53